Tiempo atmosférico en la estación meteorológica de Bello, Teruel (1006 m.)



Fecha
DESCASC
Temp. máxima en grados centígrados (hora)
DESCASC
Temp. mínima en grados centígrados (hora)
DESCASC
Temp. media en grados centígrados
DESCASC
Racha de viento máxima en m/sg (hora)
DESCASC
Velocidad máxima media en intervalos de 10 minutos(hora)
DESCASC
Precipitaciones diarias en mm
DESCASC
Precipitaciones de 00:00 a 06:00 en mm
DESCASC
Precipitaciones de 06:00 a 12:00 en mm
DESCASC
Precipitaciones de 12:00 a 18:00 en mm
DESCASC
Precipitaciones de 18:00 a 24:00 en mm
DESCASC
31-03-2020 7.2 (17:20) -2.4 (04:20) 2.4 7.78 (20:00) 5.83 (22:20) 5.2 2.8 2.4 0 0
29-03-2020 15.3 (16:50) -2 (-00:0) 6.7 10.56 (19:30) 7.22 (19:40) 0 0 0 0 0
28-03-2020 12.3 (15:30) -1.6 (-00:0) 5.4 5.28 (12:50) 3.61 (22:00) 0 0 0 0 0
27-03-2020 9.1 (16:00) -2 (-00:0) 3.6 8.61 (16:00) 5.56 (16:10) 0 0 0 0 0
26-03-2020 8.2 (17:10) -0.8 (-00:0) 3.7 11.67 (12:30) 7.5 (13:00) 0.2 0 0.2 0 0
25-03-2020 10.3 (16:30) 0.2 (00:00) 5.3 8.06 (13:00) 5.28 (14:20) 0 0 0 0 0
24-03-2020 9.6 (12:00) 0.5 (00:00) 5.1 10 (12:00) 6.67 (12:00) 0.2 0 0.2 0 0
23-03-2020 9.9 (16:00) 5 (00:00) 7.4 8.33 (16:30) 5 (16:20) 5.8 0 0 2.6 3.2
22-03-2020 11.5 (12:40) 5.5 (04:00) 8.5 8.89 (13:00) 6.11 (13:20) 3 2.8 0.2 0 0
21-03-2020 10.7 (16:20) 2.4 (00:00) 6.5 8.61 (10:30) 5.83 (02:00) 0 0 0 0 0
20-03-2020 13.2 (17:00) 3.4 (00:00) 8.3 9.72 (00:10) 7.22 (00:10) 0 0 0 0 0
19-03-2020 15 (15:50) 0.6 (00:00) 7.8 10.83 (23:30) 6.94 (23:59) 0 0 0 0 0
18-03-2020 14.9 (17:00) 3.2 (00:00) 9 5.28 (12:50) 3.89 (00:10) 0 0 0 0 0
17-03-2020 10.2 (16:50) 4.7 (00:00) 7.4 12.5 (17:30) 7.78 (17:30) 15 12.4 1 1.6 0
16-03-2020 7.4 (00:00) 0.4 (00:00) 3.9 10.83 (04:20) 8.33 (04:20) 32.8 3.2 19.8 9.8 0
15-03-2020 18.8 (14:40) 0.8 (00:00) 9.8 20.28 (18:50) 12.22 (18:50) 0.4 0 0 0.2 0.2
14-03-2020 16.8 (15:30) 0.9 (00:00) 8.8 9.17 (17:30) 5 (17:20) 0 0 0 0 0
13-03-2020 14.5 (14:40) 4.4 (23:59) 9.5 11.67 (17:30) 7.78 (16:20) 0 0 0 0 0
12-03-2020 24.5 (14:10) 2.3 (00:00) 13.4 7.22 (23:50) 5 (23:50) 0 0 0 0 0
11-03-2020 23.6 (16:20) 1 (00:00) 12.3 5 (16:40) 3.89 (22:00) 0 0 0 0 0
10-03-2020 20.5 (17:10) 1.6 (00:00) 11.1 13.61 (11:30) 6.94 (11:10) 0 0 0 0 0
09-03-2020 12.6 (15:50) 3 (00:00) 7.8 12.22 (15:40) 7.5 (15:50) 0 0 0 0 0
08-03-2020 -- (--) -- (--) -- -- (--) -- (--) -- -- -- 0 0
07-03-2020 -- (--) -- (--) -- -- (--) -- (--) -- -- -- -- --
06-03-2020 -- (--) -- (--) -- -- (--) -- (--) -- 0 0.8 -- --
05-03-2020 12.4 (15:40) 5.3 (00:00) 8.8 23.61 (12:30) 13.61 (12:30) 0.4 0 0 0 0.4
04-03-2020 15.3 (13:00) 6.7 (02:20) 11 14.44 (10:30) 9.17 (10:10) 0 0 0 0 0

Gráficas

Temp. máximas Temp. mínimas Temp. medias Precipitaciones Rachas de viento máximas Velocidades máximas media en intervalos de 10 minutos

Datos horarios

Fecha y hora oficial Temperatura (ºC) Velocidad del viento (km/h) Dirección del viento Racha (km/h) Dirección de racha Precipitación (mm) Presión (hPa) Tendencia (hPa) Humedad (%)
2020-04-02 23:00:00 6.3 18 Nordeste 30 Norte 0 -- -- 73
2020-04-02 22:00:00 6.8 13 Norte 21 Norte 0 -- -- 82
2020-04-02 21:00:00 7.2 10 Norte 26 Norte 0 -- -- 83
2020-04-02 20:00:00 7.4 11 Norte 23 Norte 0 -- -- 87
2020-04-02 19:00:00 7.4 15 Nordeste 22 Norte 0.2 -- -- 88
2020-04-02 18:00:00 7.4 13 Nordeste 21 Nordeste 0.4 -- -- 86
2020-04-02 17:00:00 7.2 13 Nordeste 28 Nordeste 0.2 -- -- 88
2020-04-02 16:00:00 7.7 17 Norte 26 Norte 0.2 -- -- 84
2020-04-02 15:00:00 7.4 16 Nordeste 22 Nordeste 0.2 -- -- 85
2020-04-02 14:00:00 7.1 16 Norte 31 Norte 0 -- -- 86
2020-04-02 13:00:00 8.1 13 Norte 23 Norte 0 -- -- 82
2020-04-02 12:00:00 6.7 11 Norte 19 Norte 0.2 -- -- 88
2020-04-02 11:00:00 6.4 9 Noroeste 14 Noroeste 0 -- -- 88
2020-04-02 10:00:00 5.8 6 Norte 9 Norte 0 -- -- 87
2020-04-02 09:00:00 5.1 5 Nordeste 13 Nordeste 0 -- -- 91
2020-04-02 08:00:00 4.7 6 Nordeste 10 Nordeste 0 -- -- 96
2020-04-02 07:00:00 4.9 5 Nordeste 14 Nordeste 0 -- -- 94
2020-04-02 06:00:00 5 8 Nordeste 12 Este 0 -- -- 94
2020-04-02 05:00:00 5.3 6 Nordeste 9 Este 0 -- -- 93
2020-04-02 04:00:00 5.4 3 Noroeste 8 Nordeste 0 -- -- 95
2020-04-02 03:00:00 5.3 7 Nordeste 10 Este 0 -- -- 96
2020-04-02 02:00:00 5.3 6 Este 10 Este 0 -- -- 96
2020-04-02 01:00:00 5.4 9 Este 14 Nordeste 0 -- -- 95
2020-04-02 00:00:00 5.6 8 Nordeste 16 Nordeste 0 -- -- 95
2020-04-01 23:00:00 5.8 8 Este 13 Este 0 -- -- 94
2020-04-01 22:00:00 6.1 6 Este 16 Este 0 -- -- 94
2020-04-01 21:00:00 6.4 10 Nordeste 19 Nordeste 0 -- -- 92
2020-04-01 20:00:00 7.3 13 Este 18 Este 0 -- -- 88
2020-04-01 19:00:00 7.1 4 Sudeste 18 Sur 0.4 -- -- 91
2020-04-01 18:00:00 8.3 13 Este 25 Nordeste 0 -- -- 81
2020-04-01 17:00:00 9.6 11 Nordeste 22 Nordeste 0 -- -- 78
2020-04-01 16:00:00 9.8 12 Este 25 Este 0 -- -- 81
2020-04-01 15:00:00 8.3 16 Este 23 Este 0 -- -- 84
2020-04-01 14:00:00 7.7 13 Nordeste 23 Este 0 -- -- 91
2020-04-01 13:00:00 6.4 16 Este 23 Este 0.6 -- -- 95
2020-04-01 12:00:00 5.7 9 Este 14 Este 1.2 -- -- 95
2020-04-01 11:00:00 5.5 8 Este 14 Este 0.4 -- -- 95
2020-04-01 10:00:00 5.1 9 Este 13 Este 0.6 -- -- 96
2020-04-01 09:00:00 4.7 9 Este 13 Este 0.6 -- -- 95
2020-04-01 08:00:00 4.8 9 Este 23 Sudeste 0.2 -- -- 96
2020-04-01 07:00:00 5.2 14 Sudeste 20 Sudeste 5 -- -- 97
2020-04-01 06:00:00 5.1 8 Sudeste 14 Sur 1.6 -- -- 97
2020-04-01 05:00:00 5.2 9 Sudeste 14 Sudeste 0.4 -- -- 96
2020-04-01 04:00:00 5.2 10 Sudeste 17 Sudeste 0.4 -- -- 96
2020-04-01 03:00:00 4.9 9 Sudeste 14 Sudeste 0 -- -- 96
2020-04-01 02:00:00 4.9 10 Sudeste 18 Sudeste 0 -- -- 95
2020-04-01 01:00:00 5 12 Sudeste 19 Sudeste 0 -- -- 93
2020-04-01 00:00:00 5 12 Sudeste 22 Sudeste 0 -- -- 92
2020-03-31 23:00:00 5.1 13 Este 27 Sudeste 0 -- -- 92
2020-03-31 22:00:00 4.9 17 Sudeste 25 Sudeste 0 -- -- 91
2020-03-31 21:00:00 5.4 20 Sudeste 27 Sudeste 0 -- -- 89
2020-03-31 20:00:00 5.8 20 Sudeste 28 Sudeste 0 -- -- 88
2020-03-31 19:00:00 6.6 17 Sudeste 24 Este 0 -- -- 87
2020-03-31 18:00:00 7.2 15 Este 23 Este 0 -- -- 86
2020-03-31 17:00:00 5.9 6 Sudeste 14 Este 0 -- -- 89
2020-03-31 16:00:00 4.5 11 Sudeste 19 Sudeste 0 -- -- 89
2020-03-31 15:00:00 3.6 13 Sudeste 17 Sudeste 0 -- -- 90
2020-03-31 14:00:00 1.9 9 Sudeste 14 Sudeste 0 -- -- 92
2020-03-31 13:00:00 1.2 11 Este 18 Sudeste 0 -- -- 95
2020-03-31 12:00:00 0.4 10 Este 19 Este 0.4 -- -- 94
2020-03-31 11:00:00 -0.5 13 Este 22 Este 1.2 -- -- 95
2020-03-31 10:00:00 -1.3 12 Este 16 Este 0.6 -- -- 96
2020-03-31 09:00:00 -1.7 10 Este 21 Este 0.2 -- -- 96
2020-03-31 08:00:00 -2 14 Este 21 Este 0 -- -- 96
2020-03-31 07:00:00 -2.1 13 Este 22 Este 0 -- -- 96
2020-03-31 06:00:00 -2.3 14 Este 20 Este 0.2 -- -- 96
2020-03-31 05:00:00 -2.4 13 Este 23 Este 0.2 -- -- 96
2020-03-31 04:00:00 -2.3 16 Este 24 Este 0.2 -- -- 95
2020-03-31 03:00:00 -2.3 14 Nordeste 23 Nordeste 0.8 -- -- 96
2020-03-31 02:00:00 -2.1 13 Este 19 Este 1 -- -- 96
2020-03-31 01:00:00 -1.7 13 Este 19 Este 0.4 -- -- 94
2020-03-31 00:00:00 -1.4 11 Este 18 Este 0 -- -- 94
2020-03-30 23:00:00 -1.3 12 Este 19 Este 0 -- -- 95
2020-03-30 22:00:00 -1 13 Este 19 Este 0.2 -- -- 95
2020-03-30 21:00:00 -1 12 Este 15 Este 0.4 -- -- 95
2020-03-30 20:00:00 -0.8 9 Este 13 Este 0.4 -- -- 93
2020-03-30 19:00:00 -0.7 5 Este 18 Este 0.2 -- -- 92
2020-03-30 18:00:00 -0.5 10 Este 17 Este 0.4 -- -- 94
2020-03-30 17:00:00 -0.1 11 Nordeste 15 Nordeste 0 -- -- 86
2020-03-30 16:00:00 0.6 9 Este 15 Nordeste 0 -- -- 80
2020-03-30 15:00:00 1.1 9 Nordeste 18 Nordeste 0 -- -- 76
2020-03-30 14:00:00 0.1 11 Este 21 Este 0 -- -- 83
2020-03-30 13:00:00 -0.1 14 Nordeste 23 Nordeste 0 -- -- 85
2020-03-30 12:00:00 0.2 11 Nordeste 22 Nordeste 0 -- -- 81
2020-03-30 11:00:00 0.3 15 Nordeste 30 Nordeste 0 -- -- 78
2020-03-30 10:00:00 0.2 15 Nordeste 26 Nordeste 0 -- -- 80
2020-03-30 09:00:00 0.4 13 Nordeste 21 Nordeste 0 -- -- 91
2020-03-30 08:00:00 1 14 Este 22 Este 0 -- -- 90
2020-03-30 07:00:00 1.9 14 Este 25 Este 0 -- -- 90
2020-03-30 06:00:00 2.7 12 Este 20 Este 0 -- -- 90
2020-03-30 05:00:00 3.4 5 Nordeste 14 Este 0 -- -- 85
2020-03-30 04:00:00 3.9 9 Nordeste 17 Este 0 -- -- 84
2020-03-30 03:00:00 4.4 7 Este 13 Este 0 -- -- 85
2020-03-30 02:00:00 4.3 4 Sudoeste 6 Sudeste 0 -- -- 89
2020-03-30 01:00:00 3.7 3 Sur 13 Este 0 -- -- 91
2020-03-30 00:00:00 3.2 10 Este 13 Este 0 -- -- 90
2020-03-29 23:00:00 4.1 2 Este 8 Nordeste 0 -- -- 85
2020-03-29 22:00:00 5.6 5 Nordeste 20 Nordeste 0 -- -- 82
2020-03-29 21:00:00 6.7 15 Nordeste 35 Este 0 -- -- 77
2020-03-29 20:00:00 9.2 24 Nordeste 38 Nordeste 0 -- -- 64
2020-03-29 19:00:00 12.4 22 Nordeste 33 Este 0 -- -- 45
2020-03-29 18:00:00 13.8 19 Nordeste 28 Nordeste 0 -- -- 44
2020-03-29 17:00:00 15 14 Norte 26 Norte 0 -- -- 44
2020-03-29 16:00:00 14.8 13 Norte 31 Noroeste 0 -- -- 40
2020-03-29 15:00:00 14.2 18 Norte 33 Norte 0 -- -- 46
2020-03-29 14:00:00 13.6 17 Norte 30 Norte 0 -- -- 43
2020-03-29 13:00:00 12.8 15 Norte 27 Noroeste 0 -- -- 49
2020-03-29 12:00:00 10.9 8 Nordeste 16 Noroeste 0 -- -- 68
2020-03-29 11:00:00 7.6 5 Nordeste 9 Este 0 -- -- 75
2020-03-29 10:00:00 3.6 0 Calma 5 Oeste 0 -- -- 87
2020-03-29 09:00:00 -0.1 2 Noroeste 4 Noroeste 0 -- -- 95
2020-03-29 08:00:00 -1.9 4 Oeste 8 Oeste 0 -- -- 94
2020-03-29 07:00:00 -1.4 4 Noroeste 14 Sudoeste 0 -- -- 94
2020-03-29 06:00:00 -1.3 4 Noroeste 5 Noroeste 0 -- -- 94
2020-03-29 05:00:00 -1.1 0 Calma 10 Sudoeste 0 -- -- 91
2020-03-29 03:00:00 0.4 6 Oeste 10 Sudoeste 0 -- -- 91
2020-03-29 01:00:00 0.7 11 Oeste 13 Oeste 0 -- -- 90
2020-03-29 00:00:00 1.2 7 Oeste 9 Oeste 0 -- -- 88
2020-03-28 23:00:00 2.4 2 Oeste 14 Sudoeste 0 -- -- 86
2020-03-28 22:00:00 2.8 13 Sudoeste 14 Sudoeste 0 -- -- 86
2020-03-28 21:00:00 4.1 0 Calma 5 Nordeste 0 -- -- 80
2020-03-28 20:00:00 8.1 5 Nordeste 9 Este 0 -- -- 67
2020-03-28 19:00:00 10.3 8 Este 17 Nordeste 0 -- -- 58
2020-03-28 18:00:00 11.2 6 Este 18 Este 0 -- -- 52
2020-03-28 17:00:00 11.3 9 Este 18 Este 0 -- -- 52
2020-03-28 16:00:00 11.6 3 Nordeste 12 Norte 0 -- -- 52
2020-03-28 15:00:00 11 5 Sudeste 13 Norte 0 -- -- 52
2020-03-28 14:00:00 10.9 9 Nordeste 18 Nordeste 0 -- -- 54
2020-03-28 13:00:00 10.7 5 Nordeste 19 Este 0 -- -- 56
2020-03-28 12:00:00 9.6 8 Este 14 Este 0 -- -- 57
2020-03-28 11:00:00 8.3 3 Nordeste 9 Nordeste 0 -- -- 63
2020-03-28 10:00:00 6 4 Este 8 Norte 0 -- -- 77
2020-03-28 09:00:00 3 4 Noroeste 7 Noroeste 0 -- -- 88
2020-03-28 08:00:00 1.3 4 Sudoeste 6 Noroeste 0 -- -- 94
2020-03-28 07:00:00 0.5 3 Oeste 5 Oeste 0 -- -- 95
2020-03-28 06:00:00 0.1 2 Sudoeste 3 Oeste 0 -- -- 95
2020-03-28 05:00:00 -0.5 3 Oeste 5 Sudoeste 0 -- -- 94
2020-03-28 04:00:00 -1.1 2 Oeste 6 Oeste 0 -- -- 93
2020-03-28 03:00:00 -1.6 4 Noroeste 6 Noroeste 0 -- -- 91
2020-03-28 02:00:00 -1.6 4 Oeste 7 Oeste 0 -- -- 92
2020-03-28 01:00:00 -1 3 Sudoeste 12 Sudoeste 0 -- -- 90
2020-03-28 00:00:00 -0.3 3 Este 13 Sudeste 0 -- -- 89
2020-03-27 23:00:00 0.3 6 Sur 16 Sudeste 0 -- -- 88
2020-03-27 22:00:00 1.6 7 Sudeste 11 Sur 0 -- -- 84
2020-03-27 21:00:00 2.9 7 Este 13 Este 0 -- -- 78
2020-03-27 20:00:00 5 9 Nordeste 13 Nordeste 0 -- -- 73
2020-03-27 19:00:00 7 10 Este 22 Nordeste 0 -- -- 60
2020-03-27 18:00:00 8.1 15 Nordeste 28 Nordeste 0 -- -- 53
2020-03-27 17:00:00 8.2 18 Nordeste 31 Nordeste 0 -- -- 56
2020-03-27 16:00:00 9.1 13 Norte 31 Nordeste 0 -- -- 62
2020-03-27 15:00:00 7.2 8 Este 12 Nordeste 0 -- -- 55
2020-03-27 14:00:00 7.4 5 Sur 15 Este 0 -- -- 55
2020-03-27 13:00:00 6.3 4 Oeste 14 Este 0 -- -- 61
2020-03-27 12:00:00 5.1 5 Nordeste 13 Nordeste 0 -- -- 63
2020-03-27 11:00:00 3.2 5 Nordeste 21 Este 0 -- -- 71
2020-03-27 10:00:00 2 12 Este 23 Este 0 -- -- 76
2020-03-27 09:00:00 0.4 13 Este 19 Nordeste 0 -- -- 81
2020-03-27 08:00:00 -0.4 9 Este 15 Nordeste 0 -- -- 82
2020-03-27 07:00:00 -1.4 9 Este 14 Nordeste 0 -- -- 85
2020-03-27 06:00:00 -1.2 4 Este 17 Nordeste 0 -- -- 82
2020-03-27 05:00:00 -1.4 5 Este 17 Este 0 -- -- 82
2020-03-27 04:00:00 -1.3 7 Sudeste 9 Este 0 -- -- 82
2020-03-27 03:00:00 -1.9 5 Sudoeste 10 Este 0 -- -- 81
2020-03-27 02:00:00 -1.4 5 Sudeste 9 Este 0 -- -- 75
2020-03-27 01:00:00 -0.5 4 Sudeste 18 Nordeste 0 -- -- 70
2020-03-27 00:00:00 -0.8 3 Sudeste 20 Nordeste 0 -- -- 72
2020-03-26 23:00:00 0.5 17 Nordeste 30 Nordeste 0 -- -- 67
2020-03-26 22:00:00 1.2 14 Este 25 Nordeste 0 -- -- 66
2020-03-26 21:00:00 1.6 4 Oeste 22 Nordeste 0 -- -- 68
2020-03-26 20:00:00 3 10 Nordeste 25 Nordeste 0 -- -- 63
2020-03-26 19:00:00 5.7 13 Nordeste 30 Norte 0 -- -- 52
2020-03-26 18:00:00 7.4 21 Norte 34 Norte 0 -- -- 44
2020-03-26 17:00:00 7.9 20 Norte 37 Norte 0 -- -- 47
2020-03-26 16:00:00 7.5 22 Norte 40 Norte 0 -- -- 48
2020-03-26 15:00:00 7.8 22 Norte 42 Norte 0 -- -- 51
2020-03-26 14:00:00 6.1 23 Norte 42 Norte 0 -- -- 55
2020-03-26 13:00:00 5.9 27 Norte 42 Norte 0 -- -- 64
2020-03-26 12:00:00 3.6 25 Nordeste 40 Nordeste 0.2 -- -- 80
2020-03-26 11:00:00 4.5 24 Norte 38 Norte 0 -- -- 69
2020-03-26 10:00:00 3.5 13 Norte 25 Noroeste 0 -- -- 77
2020-03-26 09:00:00 2.2 14 Noroeste 27 Noroeste 0 -- -- 82
2020-03-26 08:00:00 0.4 6 Norte 13 Noroeste 0 -- -- 87
2020-03-26 07:00:00 0.6 8 Noroeste 13 Noroeste 0 -- -- 85
2020-03-26 06:00:00 0.7 7 Noroeste 13 Oeste 0 -- -- 91
2020-03-26 05:00:00 1.4 8 Noroeste 15 Noroeste 0 -- -- 91
2020-03-26 04:00:00 0.2 5 Sudoeste 7 Sur 0 -- -- 94
2020-03-26 03:00:00 0.5 5 Este 10 Sudeste 0 -- -- 93
2020-03-26 02:00:00 1.4 5 Noroeste 7 Noroeste 0 -- -- 89
2020-03-26 01:00:00 0.5 2 Sudoeste 6 Nordeste 0 -- -- 91
2020-03-26 00:00:00 1 3 Oeste 12 Sudoeste 0 -- -- 90
2020-03-25 23:00:00 1.3 5 Sudoeste 8 Sudoeste 0 -- -- 86
2020-03-25 22:00:00 2.1 3 Sudoeste 12 Sudoeste 0 -- -- 84
2020-03-25 21:00:00 3.4 8 Sudoeste 12 Sudoeste 0 -- -- 78
2020-03-25 20:00:00 4.7 3 Oeste 13 Nordeste 0 -- -- 72
2020-03-25 19:00:00 7.5 9 Nordeste 22 Norte 0 -- -- 61
2020-03-25 18:00:00 9.6 14 Nordeste 26 Este 0 -- -- 50
2020-03-25 17:00:00 9.3 13 Nordeste 26 Nordeste 0 -- -- 64
2020-03-25 16:00:00 9.5 16 Nordeste 25 Nordeste 0 -- -- 63
2020-03-25 15:00:00 9.8 13 Nordeste 27 Este 0 -- -- 63
2020-03-25 14:00:00 9.3 12 Nordeste 25 Nordeste 0 -- -- 62
2020-03-25 13:00:00 8.2 14 Norte 29 Norte 0 -- -- 67
2020-03-25 12:00:00 7.9 17 Norte 28 Norte 0 -- -- 74
2020-03-25 11:00:00 8.2 13 Norte 28 Norte 0 -- -- 79
2020-03-25 10:00:00 6.1 6 Nordeste 13 Nordeste 0 -- -- 86
2020-03-25 09:00:00 5.5 10 Norte 22 Noroeste 0 -- -- 89
2020-03-25 08:00:00 4 12 Oeste 23 Oeste 0 -- -- 90
2020-03-25 07:00:00 3.1 4 Oeste 5 Oeste 0 -- -- 93
2020-03-25 06:00:00 3.2 3 Sur 11 Sudoeste 0 -- -- 93
2020-03-25 05:00:00 3 4 Sudoeste 10 Nordeste 0 -- -- 94
2020-03-25 04:00:00 2.4 5 Nordeste 10 Este 0 -- -- 93
2020-03-25 03:00:00 1.8 2 Nordeste 8 Sudoeste 0 -- -- 94
2020-03-25 02:00:00 0.9 5 Oeste 10 Sudoeste 0 -- -- 95
2020-03-25 01:00:00 0.6 5 Sudoeste 9 Oeste 0 -- -- 94
2020-03-25 00:00:00 0.5 3 Noroeste 5 Oeste 0 -- -- 93
2020-03-24 23:00:00 1.4 0 Calma 14 Sudoeste 0 -- -- 93
2020-03-24 22:00:00 2.8 8 Sudoeste 12 Sur 0 -- -- 87
2020-03-24 21:00:00 3.2 3 Sudeste 10 Sudeste 0 -- -- 90
2020-03-24 20:00:00 4.5 9 Sudeste 14 Sudeste 0 -- -- 87
2020-03-24 19:00:00 6.7 12 Sudeste 21 Sudeste 0 -- -- 82
2020-03-24 18:00:00 8.2 15 Este 22 Sudeste 0 -- -- 75
2020-03-24 17:00:00 8.3 14 Este 24 Este 0 -- -- 75
2020-03-24 16:00:00 8.6 12 Este 28 Este 0 -- -- 77
2020-03-24 15:00:00 8.7 18 Este 28 Sudeste 0 -- -- 75
2020-03-24 14:00:00 8.5 15 Este 31 Nordeste 0 -- -- 76
2020-03-24 13:00:00 8.7 19 Este 32 Este 0 -- -- 72
2020-03-24 12:00:00 9.6 24 Este 36 Este 0 -- -- 74
2020-03-24 11:00:00 9.1 18 Sudeste 29 Sudeste 0.2 -- -- 77
2020-03-24 10:00:00 7.6 21 Este 32 Este 0 -- -- 82
2020-03-24 09:00:00 6.9 16 Este 29 Este 0 -- -- 87
2020-03-24 08:00:00 6.4 14 Este 23 Este 0 -- -- 89
2020-03-24 07:00:00 5.8 8 Este 14 Sudeste 0 -- -- 93
2020-03-24 06:00:00 5.8 11 Este 19 Este 0 -- -- 91
2020-03-24 05:00:00 6.2 13 Este 31 Este 0 -- -- 91
2020-03-24 04:00:00 6.2 20 Este 26 Este 0 -- -- 90
2020-03-24 03:00:00 5 7 Sudeste 26 Este 0 -- -- 92
2020-03-24 02:00:00 6.9 16 Este 24 Este 0 -- -- 91
2020-03-24 01:00:00 6.8 13 Este 20 Sudeste 0 -- -- 93
2020-03-24 00:00:00 6.7 12 Este 18 Este 0 -- -- 93
2020-03-23 23:00:00 6.1 10 Este 17 Sudeste 0 -- -- 93
2020-03-23 22:00:00 6.7 3 Este 6 Este 0 -- -- 93
2020-03-23 21:00:00 6.7 0 Calma 11 Este 0 -- -- 94
2020-03-23 20:00:00 6.7 4 Este 22 Sudeste 2.4 -- -- 93
2020-03-23 19:00:00 7.5 11 Sudeste 20 Este 0.8 -- -- 91
2020-03-23 18:00:00 8 18 Este 28 Este 0 -- -- 86
2020-03-23 17:00:00 8.9 14 Este 30 Sudeste 0 -- -- 84
2020-03-23 16:00:00 9.9 12 Este 21 Este 0.6 -- -- 81
2020-03-23 15:00:00 8.7 10 Sudeste 18 Sudeste 0.6 -- -- 89
2020-03-23 14:00:00 8.8 10 Nordeste 19 Nordeste 1.4 -- -- 90
2020-03-23 13:00:00 9.2 13 Este 24 Este 0 -- -- 80
2020-03-23 12:00:00 9.1 17 Este 23 Este 0 -- -- 81
2020-03-23 11:00:00 7.9 16 Este 23 Este 0 -- -- 86
2020-03-23 10:00:00 7.1 13 Este 23 Este 0 -- -- 89
2020-03-23 09:00:00 6.7 13 Este 19 Este 0 -- -- 88
2020-03-23 08:00:00 5.7 11 Este 16 Este 0 -- -- 93
2020-03-23 07:00:00 5.1 7 Este 16 Este 0 -- -- 93
2020-03-23 06:00:00 5.6 6 Este 14 Este 0 -- -- 92
2020-03-23 05:00:00 5.6 5 Nordeste 10 Sudeste 0 -- -- 94
2020-03-23 04:00:00 5.4 8 Sudeste 15 Este 0 -- -- 94
2020-03-23 03:00:00 5.4 8 Sudeste 10 Sudeste 0 -- -- 93
2020-03-23 02:00:00 6.3 5 Este 8 Este 0 -- -- 93
2020-03-23 01:00:00 6.2 5 Sudeste 9 Sudeste 0 -- -- 94
2020-03-23 00:00:00 6.2 9 Este 12 Este 0 -- -- 92
2020-03-22 23:00:00 6 7 Sudeste 10 Sudeste 0 -- -- 90
2020-03-22 22:00:00 7 7 Sudeste 18 Sudeste 0 -- -- 89
2020-03-22 21:00:00 7.1 12 Este 19 Sudeste 0 -- -- 88
2020-03-22 20:00:00 7.4 13 Este 23 Este 0 -- -- 85
2020-03-22 19:00:00 7.8 15 Este 28 Este 0 -- -- 83
2020-03-22 18:00:00 8.7 16 Este 24 Este 0 -- -- 79
2020-03-22 17:00:00 8.7 18 Este 26 Sudeste 0 -- -- 79
2020-03-22 16:00:00 9.1 16 Sudeste 23 Sudeste 0 -- -- 75
2020-03-22 15:00:00 10 10 Este 26 Nordeste 0 -- -- 64
2020-03-22 14:00:00 10.1 18 Sudeste 30 Este 0 -- -- 63
2020-03-22 13:00:00 10.9 17 Este 32 Nordeste 0 -- -- 49
2020-03-22 12:00:00 10 10 Nordeste 23 Nordeste 0 -- -- 59
2020-03-22 11:00:00 8.4 12 Nordeste 18 Nordeste 0 -- -- 69
2020-03-22 10:00:00 7.7 7 Nordeste 12 Nordeste 0 -- -- 83
2020-03-22 09:00:00 6.7 3 Noroeste 8 Noroeste 0 -- -- 95
2020-03-22 08:00:00 6.1 5 Norte 9 Norte 0 -- -- 95
2020-03-22 07:00:00 5.7 4 Noroeste 6 Noroeste 0.2 -- -- 96
2020-03-22 06:00:00 5.5 4 Norte 8 Norte 0.2 -- -- 95
2020-03-22 05:00:00 5.6 4 Norte 8 Noroeste 0.6 -- -- 95
2020-03-22 04:00:00 5.5 6 Oeste 13 Noroeste 1 -- -- 93
2020-03-22 03:00:00 5.9 8 Noroeste 14 Oeste 0.8 -- -- 92
2020-03-22 02:00:00 6.5 7 Noroeste 21 Sur 0.2 -- -- 89
2020-03-22 01:00:00 7.4 13 Sur 19 Sur 0 -- -- 89
2020-03-22 00:00:00 7.7 9 Sur 21 Sur 0 -- -- 88
2020-03-21 23:00:00 7.9 9 Sur 15 Sur 0 -- -- 85
2020-03-21 22:00:00 8.2 9 Sudeste 14 Sudeste 0 -- -- 85
2020-03-21 21:00:00 8.3 7 Sudeste 10 Sudeste 0 -- -- 86
2020-03-21 20:00:00 9 8 Sur 9 Sur 0 -- -- 81
2020-03-21 19:00:00 9.8 3 Sur 14 Sur 0 -- -- 74
2020-03-21 18:00:00 10.2 10 Sur 17 Sur 0 -- -- 70
2020-03-21 17:00:00 10.5 12 Sur 18 Sur 0 -- -- 72
2020-03-21 16:00:00 10.3 9 Sudeste 15 Sudeste 0 -- -- 73
2020-03-21 15:00:00 10.1 10 Sudeste 17 Sudeste 0 -- -- 72
2020-03-21 14:00:00 9.7 9 Sudeste 16 Sur 0 -- -- 73
2020-03-21 13:00:00 9.3 12 Sudeste 19 Sudeste 0 -- -- 73
2020-03-21 12:00:00 8.3 13 Sur 24 Sur 0 -- -- 76
2020-03-21 11:00:00 7.7 20 Sur 31 Sur 0 -- -- 78
2020-03-21 10:00:00 6.3 19 Sur 26 Sur 0 -- -- 83
2020-03-21 09:00:00 5.7 15 Sur 21 Sur 0 -- -- 85
2020-03-21 08:00:00 3.2 11 Sudeste 14 Sudeste 0 -- -- 95
2020-03-21 07:00:00 2.7 5 Sudeste 13 Sur 0 -- -- 93
2020-03-21 06:00:00 3 3 Sur 20 Sur 0 -- -- 91
2020-03-21 05:00:00 3.7 18 Sur 29 Sur 0 -- -- 91
2020-03-21 04:00:00 4.1 18 Sur 26 Sur 0 -- -- 90
2020-03-21 03:00:00 5.2 9 Sur 25 Sur 0 -- -- 86
2020-03-21 02:00:00 6.4 21 Sur 28 Sur 0 -- -- 89
2020-03-21 01:00:00 6.1 17 Sur 28 Sur 0 -- -- 90
2020-03-21 00:00:00 5.7 14 Sur 28 Sur 0 -- -- 91
2020-03-20 23:00:00 5.3 10 Sudeste 24 Sudeste 0 -- -- 91
2020-03-20 22:00:00 6.7 19 Sudeste 24 Sur 0 -- -- 87
2020-03-20 21:00:00 7.1 11 Sudeste 19 Sudeste 0 -- -- 87
2020-03-20 20:00:00 8.2 12 Sudeste 23 Sur 0 -- -- 84
2020-03-20 19:00:00 10.2 18 Sur 25 Sur 0 -- -- 73
2020-03-20 18:00:00 12.3 17 Sur 24 Sur 0 -- -- 66
2020-03-20 17:00:00 13.2 16 Sur 24 Sur 0 -- -- 62
2020-03-20 16:00:00 12.5 19 Sur 27 Sur 0 -- -- 62
2020-03-20 15:00:00 12.6 17 Sur 27 Sur 0 -- -- 66
2020-03-20 14:00:00 11.5 12 Sur 23 Sur 0 -- -- 69
2020-03-20 13:00:00 10 12 Sur 23 Sur 0 -- -- 72
2020-03-20 12:00:00 8.1 12 Sur 20 Sur 0 -- -- 80
2020-03-20 11:00:00 7.4 13 Sur 22 Sur 0 -- -- 84
2020-03-20 10:00:00 6.7 13 Sur 22 Sudoeste 0 -- -- 84
2020-03-20 09:00:00 6 14 Sur 26 Sur 0 -- -- 86
2020-03-20 08:00:00 5.1 14 Sur 20 Sur 0 -- -- 89
2020-03-20 07:00:00 3.4 9 Sudeste 14 Sur 0 -- -- 93
2020-03-20 06:00:00 3.8 12 Sur 21 Sur 0 -- -- 90
2020-03-20 05:00:00 4 15 Sur 24 Sur 0 -- -- 91
2020-03-20 04:00:00 4.2 14 Sur 26 Sur 0 -- -- 91
2020-03-20 03:00:00 4.9 23 Sur 31 Sur 0 -- -- 90
2020-03-20 02:00:00 5 11 Sur 21 Sudeste 0 -- -- 92
2020-03-20 01:00:00 5.4 14 Sudeste 35 Sur 0 -- -- 90
2020-03-20 00:00:00 6.6 25 Sur 39 Sur 0 -- -- 87
2020-03-19 23:00:00 7.1 24 Sur 32 Sur 0 -- -- 87
2020-03-19 22:00:00 7.7 23 Sur 31 Sur 0 -- -- 82
2020-03-19 21:00:00 8.2 18 Sudeste 24 Sudeste 0 -- -- 79
2020-03-19 20:00:00 9.4 20 Sudeste 28 Sudeste 0 -- -- 75
2020-03-19 19:00:00 11.1 17 Sudeste 29 Sudeste 0 -- -- 72
2020-03-19 18:00:00 13.5 14 Sur 22 Sur 0 -- -- 59
2020-03-19 17:00:00 14.9 13 Sur 22 Sur 0 -- -- 56
2020-03-19 16:00:00 14.9 13 Sudeste 20 Sudeste 0 -- -- 52
2020-03-19 15:00:00 14.5 8 Sudeste 21 Sudeste 0 -- -- 50
2020-03-19 14:00:00 13.9 14 Sudeste 22 Sur 0 -- -- 52
2020-03-19 13:00:00 12.9 12 Sudeste 21 Sudeste 0 -- -- 57
2020-03-19 12:00:00 11.3 14 Sur 18 Sur 0 -- -- 49
2020-03-19 11:00:00 9.7 7 Sur 14 Sudeste 0 -- -- 62
2020-03-19 10:00:00 5.4 0 Calma 3 Nordeste 0 -- -- 99
2020-03-19 09:00:00 2.3 0 Calma 2 Noroeste 0 -- -- 98
2020-03-19 08:00:00 0.6 3 Norte 5 Nordeste 0 -- -- 97
2020-03-19 07:00:00 0.6 2 Oeste 5 Oeste 0 -- -- 97
2020-03-19 06:00:00 0.9 2 Sudoeste 4 Sudoeste 0 -- -- 96
2020-03-19 05:00:00 1.9 2 Sudoeste 11 Sudoeste 0 -- -- 97
2020-03-19 04:00:00 2.2 8 Oeste 10 Oeste 0 -- -- 97
2020-03-19 03:00:00 2.9 6 Oeste 9 Oeste 0 -- -- 96
2020-03-19 02:00:00 3.7 2 Oeste 5 Oeste 0 -- -- 95
2020-03-19 01:00:00 4.4 3 Sudeste 8 Sur 0 -- -- 93
2020-03-19 00:00:00 6.1 5 Sur 8 Sur 0 -- -- 95
2020-03-18 23:00:00 7 4 Sudeste 10 Sudeste 0 -- -- 94
2020-03-18 22:00:00 8 7 Sudeste 13 Sudeste 0 -- -- 91
2020-03-18 21:00:00 8.8 9 Sudeste 13 Sudeste 0 -- -- 90
2020-03-18 20:00:00 10.1 8 Sudeste 19 Este 0 -- -- 83
2020-03-18 19:00:00 11.9 11 Este 18 Sudeste 0 -- -- 77
2020-03-18 18:00:00 14 10 Sudeste 15 Sudeste 0 -- -- 68
2020-03-18 17:00:00 14.9 4 Sudeste 16 Sudeste 0 -- -- 61
2020-03-18 16:00:00 14.6 10 Este 15 Sudeste 0 -- -- 62
2020-03-18 15:00:00 14.1 8 Sudeste 15 Sudeste 0 -- -- 62
2020-03-18 14:00:00 13 9 Este 18 Este 0 -- -- 64
2020-03-18 13:00:00 12.6 14 Este 19 Sudeste 0 -- -- 63
2020-03-18 12:00:00 11.9 13 Sudeste 18 Sudeste 0 -- -- 64
2020-03-18 11:00:00 9.7 2 Sudoeste 6 Nordeste 0 -- -- 77
2020-03-18 10:00:00 7.6 0 Calma 5 Nordeste 0 -- -- 88
2020-03-18 09:00:00 5.1 0 Calma 5 Oeste 0 -- -- 98
2020-03-18 08:00:00 3.4 3 Sudoeste 12 Sudoeste 0 -- -- 98
2020-03-18 07:00:00 3.2 8 Oeste 9 Sudoeste 0 -- -- 97
2020-03-18 06:00:00 3.4 2 Sudeste 4 Sudeste 0 -- -- 96
2020-03-18 05:00:00 4.3 0 Calma 5 Sur 0 -- -- 94
2020-03-18 04:00:00 4.9 0 Calma 8 Sur 0 -- -- 95
2020-03-18 03:00:00 4.8 6 Sur 15 Sudeste 0 -- -- 94
2020-03-18 02:00:00 5.5 10 Sudeste 14 Sudeste 0 -- -- 92
2020-03-18 01:00:00 6.5 9 Sudeste 19 Sudeste 0 -- -- 90
2020-03-18 00:00:00 6.9 11 Este 19 Sudeste 0 -- -- 91
2020-03-17 23:00:00 6.9 10 Este 20 Sudeste 0 -- -- 92
2020-03-17 22:00:00 7.4 13 Sudeste 19 Sudeste 0 -- -- 91
2020-03-17 21:00:00 7.1 11 Sudeste 18 Sudeste 0 -- -- 92
2020-03-17 20:00:00 7.9 13 Sudeste 20 Este 0 -- -- 90
2020-03-17 19:00:00 9.1 9 Este 28 Este 0 -- -- 85
2020-03-17 18:00:00 10.1 22 Este 45 Este 0 -- -- 83
2020-03-17 17:00:00 10.2 25 Este 39 Este 0 -- -- 89
2020-03-17 16:00:00 10.1 20 Este 28 Este 0.2 -- -- 90
2020-03-17 15:00:00 9.4 4 Este 13 Sudeste 0.4 -- -- 95
2020-03-17 14:00:00 9.6 11 Sudeste 19 Sudeste 0.6 -- -- 90
2020-03-17 13:00:00 10.1 13 Sudeste 31 Este 0.4 -- -- 93
2020-03-17 12:00:00 8.3 13 Este 27 Este 0.2 -- -- 98
2020-03-17 11:00:00 7.8 15 Este 27 Este 0.2 -- -- 99
2020-03-17 10:00:00 7.5 15 Este 26 Nordeste 0 -- -- 98
2020-03-17 09:00:00 7.4 12 Este 21 Este 0 -- -- 97
2020-03-17 08:00:00 7.1 12 Este 24 Nordeste 0.2 -- -- 98
2020-03-17 07:00:00 6.8 15 Nordeste 20 Nordeste 0.4 -- -- 99
2020-03-17 06:00:00 6.3 5 Nordeste 17 Nordeste 1.6 -- -- 99
2020-03-17 05:00:00 6.1 10 Este 18 Este 4.4 -- -- 99
2020-03-17 04:00:00 5.8 10 Nordeste 25 Nordeste 2.2 -- -- 99
2020-03-17 03:00:00 5.8 19 Nordeste 28 Este 4 -- -- 99
2020-03-17 02:00:00 5.6 15 Este 26 Este 0.2 -- -- 99
2020-03-17 01:00:00 5.1 15 Este 27 Nordeste 0 -- -- 99
2020-03-17 00:00:00 4.7 10 Este 20 Este 0 -- -- 99
2020-03-16 23:00:00 3.6 10 Este 18 Este 0 -- -- 99
2020-03-16 22:00:00 2.1 5 Este 8 Nordeste 0 -- -- 98
2020-03-16 21:00:00 1.3 3 Sudoeste 8 Sudoeste 0 -- -- 97
2020-03-16 20:00:00 1 0 Calma 14 Sudoeste 0 -- -- 97
2020-03-16 19:00:00 0.9 5 Oeste 12 Norte 0 -- -- 97
2020-03-16 18:00:00 0.5 8 Nordeste 19 Oeste 3.2 -- -- 97
2020-03-16 17:00:00 0.7 12 Oeste 21 Sudoeste 1 -- -- 97
2020-03-16 16:00:00 0.5 8 Norte 14 Norte 2.4 -- -- 97
2020-03-16 15:00:00 1.3 6 Norte 21 Nordeste 1.6 -- -- 94
2020-03-16 14:00:00 1.8 8 Norte 13 Norte 1 -- -- 97
2020-03-16 13:00:00 1.4 8 Noroeste 12 Noroeste 0.6 -- -- 96
2020-03-16 12:00:00 1.3 6 Sudeste 14 Oeste 2.8 -- -- 95
2020-03-16 11:00:00 1.9 12 Oeste 25 Oeste 4 -- -- 94
2020-03-16 10:00:00 3.8 21 Nordeste 28 Nordeste 8.8 -- -- 94
2020-03-16 09:00:00 5.5 9 Norte 17 Este 4 -- -- 95
2020-03-16 08:00:00 6.8 10 Este 26 Sur 0.2 -- -- 93
2020-03-16 07:00:00 6.9 19 Sur 29 Sur 0 -- -- 90
2020-03-16 06:00:00 6.7 20 Sur 39 Sudeste 0 -- -- 91
2020-03-16 05:00:00 6.6 26 Sur 39 Sur 0 -- -- 93
2020-03-16 04:00:00 6.8 28 Sur 37 Sur 0 -- -- 93
2020-03-16 03:00:00 6.7 19 Sur 29 Sur 0.2 -- -- 96
2020-03-16 02:00:00 6.5 15 Sudeste 19 Sudeste 2.2 -- -- 94
2020-03-16 01:00:00 6.7 6 Sudeste 10 Este 0.8 -- -- 91
2020-03-16 00:00:00 7.4 2 Sur 22 Noroeste 0 -- -- 82
2020-03-15 23:00:00 8.1 18 Noroeste 64 Sur 0 -- -- 77
2020-03-15 22:00:00 9.1 33 Sur 46 Sur 0 -- -- 76
2020-03-15 21:00:00 10.1 21 Sur 30 Sur 0 -- -- 72
2020-03-15 20:00:00 10.7 22 Sudoeste 57 Sudoeste 0 -- -- 67
2020-03-15 19:00:00 12 25 Sudoeste 73 Sudoeste 0.2 -- -- 64
2020-03-15 18:00:00 13.7 18 Sudoeste 32 Sudoeste 0 -- -- 65
2020-03-15 17:00:00 15.2 20 Oeste 32 Oeste 0 -- -- 61
2020-03-15 16:00:00 15.8 13 Oeste 36 Oeste 0 -- -- 55
2020-03-15 15:00:00 17.7 21 Sudoeste 37 Sudoeste 0 -- -- 46
2020-03-15 14:00:00 17.1 21 Oeste 34 Oeste 0.2 -- -- 54
2020-03-15 13:00:00 16.3 21 Sur 54 Sur 0 -- -- 57
2020-03-15 12:00:00 17.4 33 Sur 50 Sur 0 -- -- 54
2020-03-15 11:00:00 15.8 30 Sur 39 Sur 0 -- -- 62
2020-03-15 10:00:00 13.1 18 Sur 30 Sur 0 -- -- 70
2020-03-15 09:00:00 9.6 5 Sudeste 21 Sur 0 -- -- 81
2020-03-15 08:00:00 8.2 7 Sur 19 Sudoeste 0 -- -- 82
2020-03-15 07:00:00 5.9 11 Sudoeste 20 Sudoeste 0 -- -- 95
2020-03-15 06:00:00 3.4 5 Noroeste 8 Sudoeste 0 -- -- 77
2020-03-15 05:00:00 2.5 2 Sudoeste 13 Norte 0 -- -- 71
2020-03-15 04:00:00 1 4 Oeste 6 Oeste 0 -- -- 74
2020-03-15 03:00:00 1.2 3 Noroeste 5 Noroeste 0 -- -- 72
2020-03-15 02:00:00 1.4 0 Calma 5 Nordeste 0 -- -- 71
2020-03-15 01:00:00 2.3 3 Noroeste 7 Sudoeste 0 -- -- 67
2020-03-15 00:00:00 2.8 3 Sudoeste 12 Sudoeste 0 -- -- 65
2020-03-14 23:00:00 3.8 3 Sur 6 Sudoeste 0 -- -- 61
2020-03-14 22:00:00 4.7 5 Sudeste 11 Sudoeste 0 -- -- 56
2020-03-14 21:00:00 6.4 7 Sudoeste 12 Sudeste 0 -- -- 51
2020-03-14 20:00:00 8.8 10 Este 15 Este 0 -- -- 44
2020-03-14 19:00:00 11.7 11 Nordeste 22 Nordeste 0 -- -- 39
2020-03-14 18:00:00 14.4 17 Este 33 Nordeste 0 -- -- 34
2020-03-14 17:00:00 15.8 17 Este 24 Este 0 -- -- 34
2020-03-14 16:00:00 16.8 13 Nordeste 23 Nordeste 0 -- -- 33
2020-03-14 15:00:00 16.6 9 Este 17 Nordeste 0 -- -- 31
2020-03-14 14:00:00 15.4 8 Nordeste 16 Nordeste 0 -- -- 36
2020-03-14 13:00:00 14.1 5 Este 13 Este 0 -- -- 40
2020-03-14 12:00:00 12.5 3 Norte 9 Sudeste 0 -- -- 58
2020-03-14 11:00:00 10.3 4 Nordeste 9 Este 0 -- -- 75
2020-03-14 10:00:00 7.8 4 Nordeste 6 Nordeste 0 -- -- 84
2020-03-14 09:00:00 4.4 4 Este 9 Este 0 -- -- 93
2020-03-14 08:00:00 1.6 6 Sudoeste 12 Sudoeste 0 -- -- 97
2020-03-14 07:00:00 0.9 5 Sudoeste 9 Nordeste 0 -- -- 95
2020-03-14 06:00:00 1.7 6 Sudoeste 12 Sudoeste 0 -- -- 95
2020-03-14 05:00:00 1.6 7 Sudoeste 12 Norte 0 -- -- 94
2020-03-14 04:00:00 2.2 8 Sudoeste 12 Sudoeste 0 -- -- 93
2020-03-14 03:00:00 2.9 4 Oeste 9 Oeste 0 -- -- 94
2020-03-14 02:00:00 3.1 3 Noroeste 7 Sudoeste 0 -- -- 92
2020-03-14 01:00:00 3.6 3 Sudoeste 5 Sur 0 -- -- 91
2020-03-14 00:00:00 4.4 3 Este 10 Este 0 -- -- 89
2020-03-13 23:00:00 6 6 Este 14 Este 0 -- -- 87
2020-03-13 22:00:00 6.7 10 Este 25 Este 0 -- -- 84
2020-03-13 21:00:00 7.6 16 Este 32 Este 0 -- -- 81
2020-03-13 20:00:00 8.4 20 Nordeste 30 Este 0 -- -- 78
2020-03-13 19:00:00 10 20 Nordeste 37 Nordeste 0 -- -- 72
2020-03-13 18:00:00 11.6 23 Nordeste 42 Nordeste 0 -- -- 68
2020-03-13 17:00:00 12.9 26 Nordeste 39 Nordeste 0 -- -- 66
2020-03-13 16:00:00 13.7 25 Nordeste 35 Nordeste 0 -- -- 64
2020-03-13 15:00:00 14 19 Nordeste 28 Nordeste 0 -- -- 63
2020-03-13 14:00:00 14.2 17 Nordeste 34 Nordeste 0 -- -- 64
2020-03-13 13:00:00 13.3 16 Nordeste 27 Este 0 -- -- 66
2020-03-13 12:00:00 11.6 19 Nordeste 31 Este 0 -- -- 74
2020-03-13 11:00:00 10.7 16 Este 24 Nordeste 0 -- -- 76
2020-03-13 10:00:00 8.9 14 Este 22 Este 0 -- -- 83
2020-03-13 09:00:00 7.1 9 Este 16 Este 0 -- -- 92
2020-03-13 08:00:00 6.4 11 Este 21 Este 0 -- -- 94
2020-03-13 07:00:00 6.9 13 Este 19 Este 0 -- -- 90
2020-03-13 06:00:00 7 9 Este 19 Este 0 -- -- 90
2020-03-13 05:00:00 7.3 13 Este 30 Este 0 -- -- 91
2020-03-13 04:00:00 7.4 15 Este 26 Este 0 -- -- 92
2020-03-13 03:00:00 7.2 10 Este 22 Este 0 -- -- 95
2020-03-13 02:00:00 7.4 13 Este 22 Este 0 -- -- 93
2020-03-13 01:00:00 7.8 18 Este 27 Este 0 -- -- 93
2020-03-13 00:00:00 8.9 17 Este 26 Este 0 -- -- 89
2020-03-12 23:00:00 10.3 13 Este 20 Este 0 -- -- 85
2020-03-12 22:00:00 11.4 11 Este 24 Este 0 -- -- 80
2020-03-12 21:00:00 13.3 14 Este 24 Nordeste 0 -- -- 70
2020-03-12 20:00:00 15.3 16 Este 24 Nordeste 0 -- -- 64
2020-03-12 19:00:00 18.1 5 Nordeste 22 Este 0 -- -- 53
2020-03-12 18:00:00 22.4 3 Norte 9 Nordeste 0 -- -- 40
2020-03-12 17:00:00 22.3 6 Nordeste 12 Nordeste 0 -- -- 45
2020-03-12 16:00:00 23.4 8 Este 10 Este 0 -- -- 37
2020-03-12 15:00:00 24 5 Este 9 Este 0 -- -- 35
2020-03-12 14:00:00 24.4 4 Este 12 Este 0 -- -- 33
2020-03-12 13:00:00 23.3 4 Nordeste 9 Nordeste 0 -- -- 35
2020-03-12 12:00:00 20.2 3 Sudeste 8 Sudeste 0 -- -- 49
2020-03-12 11:00:00 15.8 3 Norte 6 Noroeste 0 -- -- 60
2020-03-12 10:00:00 11.8 3 Noroeste 10 Noroeste 0 -- -- 68
2020-03-12 09:00:00 7.4 3 Nordeste 6 Nordeste 0 -- -- 89
2020-03-12 08:00:00 3.9 4 Oeste 10 Oeste 0 -- -- 89
2020-03-12 07:00:00 2.5 0 Calma 5 Oeste 0 -- -- 89
2020-03-12 06:00:00 3.2 5 Oeste 7 Oeste 0 -- -- 88
2020-03-12 05:00:00 3.8 2 Sur 10 Sudoeste 0 -- -- 87
2020-03-12 04:00:00 4.6 4 Sudoeste 7 Sudoeste 0 -- -- 87
2020-03-12 03:00:00 5.6 3 Norte 7 Sur 0 -- -- 85
2020-03-12 02:00:00 6.4 3 Sur 8 Noroeste 0 -- -- 80
2020-03-12 01:00:00 7.6 4 Oeste 6 Oeste 0 -- -- 78
2020-03-12 00:00:00 8.8 4 Noroeste 8 Oeste 0 -- -- 74
2020-03-11 23:00:00 9.6 0 Calma 14 Oeste 0 -- -- 73
2020-03-11 22:00:00 10.9 14 Sudoeste 16 Sudoeste 0 -- -- 69
2020-03-11 21:00:00 12.3 4 Oeste 8 Oeste 0 -- -- 64
2020-03-11 20:00:00 14.7 5 Sudoeste 13 Sudoeste 0 -- -- 56
2020-03-11 19:00:00 18.1 2 Sudoeste 7 Nordeste 0 -- -- 54
2020-03-11 18:00:00 21.2 6 Nordeste 16 Noroeste 0 -- -- 47
2020-03-11 17:00:00 23.2 8 Norte 18 Noroeste 0 -- -- 35
2020-03-11 16:00:00 23.1 8 Nordeste 16 Norte 0 -- -- 37
2020-03-11 15:00:00 22.4 7 Nordeste 14 Norte 0 -- -- 41
2020-03-11 14:00:00 20.9 6 Nordeste 12 Este 0 -- -- 42
2020-03-11 13:00:00 18.9 6 Este 11 Nordeste 0 -- -- 47
2020-03-11 12:00:00 17.2 4 Norte 8 Nordeste 0 -- -- 48
2020-03-11 11:00:00 14.2 2 Sudeste 6 Nordeste 0 -- -- 62
2020-03-11 10:00:00 10.1 3 Nordeste 5 Este 0 -- -- 75
2020-03-11 09:00:00 6 2 Nordeste 7 Oeste 0 -- -- 87
2020-03-11 08:00:00 1.8 5 Sudoeste 9 Sudoeste 0 -- -- 93
2020-03-11 07:00:00 1.3 4 Sudoeste 7 Sudoeste 0 -- -- 91
2020-03-11 06:00:00 2.2 0 Calma 5 Noroeste 0 -- -- 87
2020-03-11 05:00:00 3.2 3 Sudoeste 9 Sudoeste 0 -- -- 87
2020-03-11 04:00:00 5.1 3 Norte 8 Noroeste 0 -- -- 83
2020-03-11 03:00:00 3.4 4 Sudeste 6 Este 0 -- -- 84
2020-03-11 02:00:00 4.3 4 Sudoeste 6 Sur 0 -- -- 84
2020-03-11 01:00:00 4.2 3 Sudeste 7 Este 0 -- -- 82
2020-03-11 00:00:00 6.1 2 Este 10 Noroeste 0 -- -- 78
2020-03-10 23:00:00 8.2 6 Noroeste 13 Oeste 0 -- -- 74
2020-03-10 22:00:00 8.8 8 Oeste 10 Oeste 0 -- -- 70
2020-03-10 21:00:00 10.9 8 Oeste 12 Oeste 0 -- -- 64
2020-03-10 20:00:00 13 8 Noroeste 10 Noroeste 0 -- -- 60
2020-03-10 19:00:00 16.8 5 Noroeste 18 Oeste 0 -- -- 49
2020-03-10 18:00:00 18.7 11 Oeste 26 Noroeste 0 -- -- 44
2020-03-10 17:00:00 20.3 14 Noroeste 24 Noroeste 0 -- -- 36
2020-03-10 16:00:00 19.7 12 Norte 23 Norte 0 -- -- 41
2020-03-10 15:00:00 19 13 Norte 24 Noroeste 0 -- -- 40
2020-03-10 14:00:00 17.7 11 Norte 31 Noroeste 0 -- -- 43
2020-03-10 13:00:00 16.5 20 Norte 37 Noroeste 0 -- -- 42
2020-03-10 12:00:00 14.6 20 Norte 49 Noroeste 0 -- -- 45
2020-03-10 11:00:00 12.4 23 Norte 37 Noroeste 0 -- -- 51
2020-03-10 10:00:00 9.4 13 Norte 22 Norte 0 -- -- 65
2020-03-10 09:00:00 4.1 4 Sur 9 Este 0 -- -- 81
2020-03-10 08:00:00 2.1 6 Este 8 Este 0 -- -- 83
2020-03-10 07:00:00 1.8 5 Norte 11 Norte 0 -- -- 80
2020-03-10 06:00:00 2.1 8 Noroeste 13 Norte 0 -- -- 78
2020-03-10 05:00:00 2.3 8 Norte 12 Norte 0 -- -- 79
2020-03-10 04:00:00 3.5 8 Noroeste 17 Noroeste 0 -- -- 75
2020-03-10 03:00:00 4.3 13 Noroeste 18 Noroeste 0 -- -- 68
2020-03-10 02:00:00 3.5 11 Noroeste 20 Noroeste 0 -- -- 66
2020-03-10 01:00:00 3.8 12 Oeste 17 Noroeste 0 -- -- 63
2020-03-10 00:00:00 3 7 Sudoeste 22 Noroeste 0 -- -- 68
2020-03-09 23:00:00 4.8 14 Noroeste 26 Noroeste 0 -- -- 67
2020-03-09 22:00:00 4.4 11 Noroeste 18 Noroeste 0 -- -- 71
2020-03-09 21:00:00 5.7 8 Norte 23 Norte 0 -- -- 70
2020-03-09 20:00:00 7.1 11 Norte 19 Norte 0 -- -- 67
2020-03-09 19:00:00 8.6 11 Nordeste 31 Nordeste 0 -- -- 63
2020-03-09 18:00:00 10.2 21 Norte 34 Nordeste 0 -- -- 50
2020-03-09 17:00:00 12.2 19 Norte 41 Noroeste 0 -- -- 43
2020-03-09 16:00:00 12.6 23 Norte 44 Noroeste 0 -- -- 44
2020-03-09 15:00:00 10.5 16 Noroeste 33 Norte 0 -- -- 50
2020-03-09 14:00:00 11 24 Norte 41 Noroeste 0 -- -- 50
2020-03-09 13:00:00 9.9 22 Noroeste 39 Noroeste 0 -- -- 54
2020-03-09 12:00:00 8.9 21 Noroeste 36 Noroeste 0 -- -- 62
2020-03-09 11:00:00 7.5 18 Noroeste 32 Norte 0 -- -- 68
2020-03-09 10:00:00 6.1 16 Noroeste 26 Noroeste 0 -- -- 79
2020-03-09 09:00:00 4.9 15 Noroeste 27 Noroeste 0 -- -- 85
2020-03-09 08:00:00 5.1 13 Norte 29 Noroeste 0 -- -- 83
2020-03-09 07:00:00 5.5 14 Noroeste 25 Noroeste 0 -- -- 80
2020-03-09 06:00:00 5.7 12 Noroeste 19 Noroeste 0 -- -- 82
2020-03-09 05:00:00 5.5 9 Norte 37 Noroeste 0 -- -- 80
2020-03-09 04:00:00 7.1 20 Noroeste 30 Noroeste 0 -- -- 77
2020-03-09 03:00:00 5.1 12 Noroeste 18 Oeste 0 -- -- 85
2020-03-09 02:00:00 5 8 Oeste 16 Noroeste 0 -- -- 79
2020-03-09 01:00:00 4.2 5 Oeste 9 Noroeste 0 -- -- 77
2020-03-09 00:00:00 5.9 8 Noroeste 14 Norte 0 -- -- 69
2020-03-08 23:00:00 6.1 8 Noroeste 22 Noroeste 0 -- -- 66
2020-03-08 22:00:00 6.2 10 Oeste 19 Noroeste 0 -- -- 64
2020-03-08 21:00:00 9.1 8 Noroeste 16 Noroeste 0 -- -- 53
2020-03-08 20:00:00 9.9 9 Noroeste 13 Norte 0 -- -- 53
2020-03-08 19:00:00 11.4 9 Norte 23 Norte 0 -- -- 56
2020-03-08 18:00:00 12.8 15 Norte 33 Noroeste 0 -- -- 48
2020-03-08 17:00:00 14.5 18 Norte 29 Norte 0 -- -- 41
2020-03-08 16:00:00 14.3 13 Norte 27 Noroeste 0 -- -- 42
2020-03-08 15:00:00 15 16 Noroeste 29 Noroeste 0 -- -- 34
2020-03-08 14:00:00 14.2 15 Norte 27 Noroeste 0 -- -- 40
2020-03-08 13:00:00 12.9 16 Noroeste 28 Noroeste 0 -- -- 45
2020-03-08 12:00:00 10.6 10 Noroeste 23 Oeste 0 -- -- 58
2020-03-08 11:00:00 -- -- -- -- -- -- -- -- --
2020-03-08 10:00:00 -- -- -- -- -- -- -- -- --
2020-03-08 09:00:00 -- -- -- -- -- -- -- -- --
2020-03-08 08:00:00 -- -- -- -- -- -- -- -- --
2020-03-08 07:00:00 -- -- -- -- -- -- -- -- --
2020-03-08 06:00:00 -- -- -- -- -- -- -- -- --
2020-03-08 05:00:00 -- -- -- -- -- -- -- -- --
2020-03-08 04:00:00 -- -- -- -- -- -- -- -- --
2020-03-08 03:00:00 -- -- -- -- -- -- -- -- --
2020-03-08 02:00:00 -- -- -- -- -- -- -- -- --
2020-03-08 01:00:00 -- -- -- -- -- -- -- -- --
2020-03-08 00:00:00 -- -- -- -- -- -- -- -- --
2020-03-07 23:00:00 -- -- -- -- -- -- -- -- --
2020-03-07 22:00:00 -- -- -- -- -- -- -- -- --
2020-03-07 21:00:00 -- -- -- -- -- -- -- -- --
2020-03-07 20:00:00 -- -- -- -- -- -- -- -- --
2020-03-07 19:00:00 -- -- -- -- -- -- -- -- --
2020-03-07 18:00:00 -- -- -- -- -- -- -- -- --
2020-03-07 17:00:00 -- -- -- -- -- -- -- -- --
2020-03-07 16:00:00 -- -- -- -- -- -- -- -- --
2020-03-07 15:00:00 -- -- -- -- -- -- -- -- --
2020-03-07 14:00:00 -- -- -- -- -- -- -- -- --
2020-03-07 13:00:00 -- -- -- -- -- -- -- -- --
2020-03-07 12:00:00 -- -- -- -- -- -- -- -- --
2020-03-07 11:00:00 -- -- -- -- -- -- -- -- --
2020-03-07 10:00:00 -- -- -- -- -- -- -- -- --
2020-03-07 09:00:00 -- -- -- -- -- -- -- -- --
2020-03-07 08:00:00 -- -- -- -- -- -- -- -- --
2020-03-07 07:00:00 -- -- -- -- -- -- -- -- --
2020-03-07 06:00:00 -- -- -- -- -- -- -- -- --
2020-03-07 05:00:00 -- -- -- -- -- -- -- -- --
2020-03-07 04:00:00 -- -- -- -- -- -- -- -- --
2020-03-07 03:00:00 -- -- -- -- -- -- -- -- --
2020-03-07 02:00:00 -- -- -- -- -- -- -- -- --
2020-03-07 01:00:00 -- -- -- -- -- -- -- -- --
2020-03-07 00:00:00 -- -- -- -- -- -- -- -- --
2020-03-06 23:00:00 -- -- -- -- -- -- -- -- --
2020-03-06 22:00:00 -- -- -- -- -- -- -- -- --
2020-03-06 21:00:00 -- -- -- -- -- -- -- -- --
2020-03-06 20:00:00 -- -- -- -- -- -- -- -- --
2020-03-06 19:00:00 -- -- -- -- -- -- -- -- --
2020-03-06 18:00:00 -- -- -- -- -- -- -- -- --
2020-03-06 17:00:00 -- -- -- -- -- -- -- -- --
2020-03-06 16:00:00 -- -- -- -- -- -- -- -- --
2020-03-06 15:00:00 5.4 27 Noroeste 48 Noroeste 0 -- -- 72
2020-03-06 14:00:00 3.2 33 Noroeste 56 Noroeste 0.8 -- -- 85
2020-03-06 13:00:00 6.1 41 Noroeste 63 Noroeste 0 -- -- 59
2020-03-06 12:00:00 6.1 39 Noroeste 63 Noroeste 0 -- -- 60
2020-03-06 11:00:00 4.6 33 Noroeste 63 Noroeste 0 -- -- 65
2020-03-06 10:00:00 4.9 38 Noroeste 60 Oeste 0 -- -- 68
2020-03-06 09:00:00 3.9 33 Noroeste 50 Noroeste 0.2 -- -- 74
2020-03-06 08:00:00 2.5 23 Noroeste 42 Oeste 0.6 -- -- 89
2020-03-06 07:00:00 2.8 25 Oeste 38 Oeste 0 -- -- 83
2020-03-06 06:00:00 2.9 15 Noroeste 24 Noroeste 0 -- -- 82
2020-03-06 05:00:00 2.9 15 Noroeste 26 Oeste 0 -- -- 84
2020-03-06 04:00:00 3 13 Oeste 31 Noroeste 0 -- -- 87
2020-03-06 03:00:00 3.7 15 Noroeste 31 Noroeste 0 -- -- 80
2020-03-06 02:00:00 4.2 22 Noroeste 33 Noroeste 0 -- -- 79
2020-03-06 01:00:00 5 19 Oeste 28 Oeste 0 -- -- 82
2020-03-06 00:00:00 5.3 10 Noroeste 16 Noroeste 0.2 -- -- 87
2020-03-05 23:00:00 5.5 14 Norte 24 Norte 0 -- -- 89
2020-03-05 22:00:00 5.8 12 Noroeste 33 Norte 0.2 -- -- 85
2020-03-05 21:00:00 6.6 19 Norte 41 Noroeste 0 -- -- 76
2020-03-05 20:00:00 8.9 20 Noroeste 39 Noroeste 0 -- -- 58
2020-03-05 19:00:00 9.7 23 Noroeste 49 Oeste 0 -- -- 54
2020-03-05 18:00:00 10.6 35 Noroeste 56 Noroeste 0 -- -- 50
2020-03-05 17:00:00 11.7 37 Noroeste 61 Noroeste 0 -- -- 46
2020-03-05 16:00:00 12.4 41 Noroeste 68 Oeste 0 -- -- 44
2020-03-05 15:00:00 11.7 41 Noroeste 67 Oeste 0 -- -- 55
2020-03-05 14:00:00 10 37 Noroeste 78 Oeste 0 -- -- 79
2020-03-05 13:00:00 12.2 46 Oeste 85 Oeste 0 -- -- 70
2020-03-05 12:00:00 11.3 43 Oeste 74 Oeste 0 -- -- 75
2020-03-05 11:00:00 10.6 35 Oeste 62 Oeste 0 -- -- 77
2020-03-05 10:00:00 9.9 30 Oeste 56 Oeste 0 -- -- 80
2020-03-05 09:00:00 9.1 26 Oeste 44 Oeste 0 -- -- 83
2020-03-05 08:00:00 8.4 5 Noroeste 16 Noroeste 0 -- -- 82
2020-03-05 07:00:00 8.4 4 Oeste 21 Oeste 0 -- -- 82
2020-03-05 06:00:00 7 2 Noroeste 24 Oeste 0 -- -- 86
2020-03-05 05:00:00 6.9 11 Oeste 30 Oeste 0 -- -- 86
2020-03-05 04:00:00 7 20 Oeste 29 Oeste 0 -- -- 83
2020-03-05 03:00:00 7 16 Oeste 28 Oeste 0 -- -- 82
2020-03-05 02:00:00 7.4 18 Oeste 29 Sudoeste 0 -- -- 80
2020-03-05 01:00:00 6.7 14 Oeste 21 Oeste 0 -- -- 82
2020-03-05 00:00:00 8.6 14 Oeste 25 Oeste 0 -- -- 75
2020-03-04 23:00:00 8.8 13 Oeste 20 Oeste 0 -- -- 74
2020-03-04 22:00:00 9.3 11 Noroeste 17 Oeste 0 -- -- 71
2020-03-04 21:00:00 9.7 9 Noroeste 15 Noroeste 0 -- -- 69
2020-03-04 20:00:00 10.3 12 Noroeste 25 Norte 0 -- -- 68
2020-03-04 19:00:00 11.8 16 Norte 28 Noroeste 0 -- -- 63
2020-03-04 18:00:00 13.5 18 Noroeste 36 Noroeste 0 -- -- 58
2020-03-04 17:00:00 13.6 22 Noroeste 41 Norte 0 -- -- 58
2020-03-04 16:00:00 14.4 24 Noroeste 44 Noroeste 0 -- -- 58
2020-03-04 15:00:00 15 21 Noroeste 40 Noroeste 0 -- -- 55
2020-03-04 14:00:00 14.9 23 Norte 40 Noroeste 0 -- -- 56
2020-03-04 13:00:00 15.3 27 Noroeste 41 Noroeste 0 -- -- 56
2020-03-04 12:00:00 14.2 29 Noroeste 45 Noroeste 0 -- -- 64
2020-03-04 11:00:00 12.5 30 Oeste 52 Oeste 0 -- -- 74
2020-03-04 10:00:00 11.8 31 Oeste 48 Oeste 0 -- -- 80
2020-03-04 09:00:00 10.5 22 Oeste 40 Oeste 0 -- -- 86
2020-03-04 08:00:00 10 20 Oeste 36 Oeste 0 -- -- 88
2020-03-04 07:00:00 9.8 18 Noroeste 31 Oeste 0 -- -- 89
2020-03-04 06:00:00 9.4 16 Oeste 29 Oeste 0 -- -- 89
2020-03-04 05:00:00 8.9 16 Noroeste 29 Oeste 0 -- -- 89
2020-03-04 04:00:00 8 19 Oeste 33 Oeste 0 -- -- 89
2020-03-04 03:00:00 6.9 9 Noroeste 24 Oeste 0 -- -- 89
2020-03-04 02:00:00 6.9 14 Oeste 23 Noroeste 0 -- -- 86
2020-03-04 01:00:00 7.8 14 Noroeste 27 Oeste 0 -- -- 81
2020-03-04 00:00:00 8.5 16 Oeste 29 Noroeste 0 -- -- 77